createdAt,value
2023-02-22T00:00:43.243Z,9.35
2023-02-22T00:03:18.302Z,9.35
2023-02-22T00:05:47.452Z,10.43
2023-02-22T00:08:16.528Z,9.73
2023-02-22T00:10:44.873Z,9.00
2023-02-22T00:13:13.992Z,9.95
2023-02-22T00:15:41.533Z,8.73
2023-02-22T00:18:11.991Z,9.23
2023-02-22T00:20:39.700Z,8.32
2023-02-22T00:23:12.947Z,10.05
2023-02-22T00:25:39.947Z,9.07
2023-02-22T00:28:07.431Z,12.32
2023-02-22T00:30:35.166Z,8.90
2023-02-22T00:33:02.777Z,8.60
2023-02-22T00:35:30.993Z,10.10
2023-02-22T00:38:02.239Z,9.43
2023-02-22T00:40:34.551Z,8.82
2023-02-22T00:43:05.003Z,9.43
2023-02-22T00:45:33.666Z,9.93
2023-02-22T00:48:01.163Z,9.52
2023-02-22T00:50:31.061Z,10.07
2023-02-22T00:52:59.863Z,8.45
2023-02-22T00:55:30.895Z,10.88
2023-02-22T00:57:57.790Z,9.07
2023-02-22T01:00:32.644Z,8.20
2023-02-22T01:03:00.120Z,11.43
2023-02-22T01:05:29.946Z,9.98
2023-02-22T01:07:58.731Z,8.13
2023-02-22T01:10:29.556Z,9.95
2023-02-22T01:12:57.292Z,9.88
2023-02-22T01:15:27.315Z,10.18
2023-02-22T01:17:55.169Z,9.88
2023-02-22T01:20:23.057Z,9.40
2023-02-22T01:22:53.807Z,10.38
2023-02-22T01:25:23.718Z,11.07
2023-02-22T01:27:51.706Z,8.90
2023-02-22T01:30:23.376Z,9.25
2023-02-22T01:32:51.596Z,8.25
2023-02-22T01:35:21.013Z,9.80
2023-02-22T01:37:47.819Z,7.90
2023-02-22T01:40:22.161Z,8.05
2023-02-22T01:42:53.668Z,8.45
2023-02-22T01:45:47.135Z,9.63
2023-02-22T01:48:14.308Z,7.70
2023-02-22T01:50:54.279Z,8.90
2023-02-22T01:53:26.249Z,9.43
2023-02-22T01:55:55.466Z,8.45
2023-02-22T01:58:24.410Z,7.82
2023-02-22T02:00:52.044Z,7.50
2023-02-22T02:03:27.674Z,7.53
2023-02-22T02:05:58.667Z,8.27
2023-02-22T02:08:47.475Z,8.20
2023-02-22T02:11:14.575Z,6.38
2023-02-22T02:13:41.760Z,8.38
2023-02-22T02:16:09.084Z,7.30
2023-02-22T02:18:35.922Z,7.53
2023-02-22T02:21:40.519Z,7.32
2023-02-22T02:24:51.631Z,10.20
2023-02-22T02:27:23.019Z,9.20
2023-02-22T02:29:58.582Z,8.98
2023-02-22T02:32:47.252Z,9.35
2023-02-22T02:35:34.466Z,10.23
2023-02-22T02:38:16.085Z,7.90
2023-02-22T02:40:52.079Z,10.98
2023-02-22T02:43:32.940Z,10.85
2023-02-22T02:46:06.125Z,8.80
2023-02-22T02:48:35.556Z,6.65
2023-02-22T02:51:06.783Z,7.45
2023-02-22T02:53:37.465Z,8.60
2023-02-22T02:56:05.564Z,11.35
2023-02-22T02:58:32.743Z,7.88
2023-02-22T03:01:04.476Z,10.32
2023-02-22T03:04:03.099Z,7.68
2023-02-22T03:06:55.480Z,9.15
2023-02-22T03:09:48.607Z,17.58
2023-02-22T03:12:35.747Z,10.68
2023-02-22T03:15:12.502Z,10.68
2023-02-22T03:18:08.264Z,8.60
2023-02-22T03:20:53.462Z,9.70
2023-02-22T03:23:42.700Z,7.18
2023-02-22T03:26:41.010Z,8.20
2023-02-22T03:29:11.632Z,6.28
2023-02-22T03:31:44.970Z,9.82
2023-02-22T03:34:17.146Z,6.45
2023-02-22T03:36:50.028Z,6.93
2023-02-22T03:39:20.309Z,7.63
2023-02-22T03:41:51.598Z,7.07
2023-02-22T03:44:27.687Z,6.88
2023-02-22T03:46:57.663Z,6.15
2023-02-22T03:49:36.404Z,8.15
2023-02-22T03:52:08.038Z,7.35
2023-02-22T03:54:36.506Z,9.48
2023-02-22T03:57:20.032Z,8.65
2023-02-22T03:59:53.674Z,7.28
2023-02-22T04:02:20.817Z,9.63
2023-02-22T04:04:48.696Z,7.88
2023-02-22T04:07:17.075Z,10.13
2023-02-22T04:09:43.942Z,12.15
2023-02-22T04:12:11.461Z,8.20
2023-02-22T04:14:52.750Z,10.90
2023-02-22T04:17:19.701Z,7.35
2023-02-22T04:19:46.755Z,6.00
2023-02-22T04:22:14.402Z,9.27
2023-02-22T04:24:41.301Z,8.93
2023-02-22T04:27:08.177Z,6.80
2023-02-22T04:29:37.627Z,8.40
2023-02-22T04:32:07.111Z,10.38
2023-02-22T04:34:34.326Z,7.15
2023-02-22T04:37:01.762Z,10.00
2023-02-22T04:39:28.658Z,7.88
2023-02-22T04:41:56.112Z,7.38
2023-02-22T04:44:23.186Z,10.05
2023-02-22T04:46:50.121Z,9.50
2023-02-22T04:49:17.359Z,8.88
2023-02-22T04:51:45.502Z,8.43
2023-02-22T04:54:13.759Z,6.85
2023-02-22T04:56:46.694Z,8.38
2023-02-22T04:59:13.969Z,6.05
2023-02-22T05:01:44.624Z,6.80
2023-02-22T05:04:11.621Z,7.90
2023-02-22T05:06:38.469Z,8.80
2023-02-22T05:09:05.714Z,9.15
2023-02-22T05:11:32.767Z,10.23
2023-02-22T05:14:00.328Z,8.25
2023-02-22T05:16:27.265Z,8.63
2023-02-22T05:18:54.635Z,6.90
2023-02-22T05:21:21.706Z,9.27
2023-02-22T05:23:48.545Z,10.25
2023-02-22T05:26:15.447Z,8.98
2023-02-22T05:28:42.305Z,9.02
2023-02-22T05:31:09.311Z,11.45
2023-02-22T05:33:36.356Z,8.18
2023-02-22T05:36:03.178Z,10.27
2023-02-22T05:38:30.439Z,8.13
2023-02-22T05:40:57.298Z,9.00
2023-02-22T05:43:24.740Z,10.35
2023-02-22T05:45:51.755Z,7.53
2023-02-22T05:48:18.587Z,12.32
2023-02-22T05:50:46.093Z,9.10
2023-02-22T05:53:13.338Z,14.45
2023-02-22T05:55:40.374Z,8.93
2023-02-22T05:58:07.216Z,12.60
2023-02-22T06:00:34.236Z,9.80
2023-02-22T06:03:06.746Z,12.38
2023-02-22T06:05:34.467Z,9.32
2023-02-22T06:08:03.381Z,11.60
2023-02-22T06:10:30.381Z,12.13
2023-02-22T06:12:58.611Z,12.25
2023-02-22T06:15:27.283Z,10.75
2023-02-22T06:17:55.911Z,10.65
2023-02-22T06:20:24.686Z,10.45
2023-02-22T06:22:53.174Z,10.55
2023-02-22T06:25:26.256Z,10.07
2023-02-22T06:27:53.107Z,9.40
2023-02-22T06:30:22.585Z,8.05
2023-02-22T06:32:50.135Z,10.05
2023-02-22T06:35:18.198Z,10.10
2023-02-22T06:37:45.463Z,9.75
2023-02-22T06:40:13.164Z,7.72
2023-02-22T06:42:40.419Z,9.85
2023-02-22T06:45:08.086Z,8.75
2023-02-22T06:47:41.483Z,6.97
2023-02-22T06:50:18.492Z,8.18
2023-02-22T06:52:45.499Z,7.63
2023-02-22T06:55:12.288Z,10.27
2023-02-22T06:57:40.340Z,13.32
2023-02-22T07:00:07.847Z,7.20
2023-02-22T07:02:35.062Z,6.85
2023-02-22T07:05:01.948Z,6.53
2023-02-22T07:07:29.817Z,7.35
2023-02-22T07:09:56.650Z,7.57
2023-02-22T07:12:23.599Z,7.95
2023-02-22T07:14:50.444Z,8.10
2023-02-22T07:17:17.253Z,6.32
2023-02-22T07:19:44.066Z,9.77
2023-02-22T07:22:10.922Z,8.65
2023-02-22T07:24:37.800Z,8.77
2023-02-22T07:27:04.678Z,7.53
2023-02-22T07:29:32.147Z,12.00
2023-02-22T07:31:59.350Z,7.97
2023-02-22T07:34:26.294Z,12.68
2023-02-22T07:36:53.182Z,10.52
2023-02-22T07:39:20.738Z,8.98
2023-02-22T07:41:47.679Z,7.13
2023-02-22T07:44:22.723Z,5.85
2023-02-22T07:46:50.442Z,5.20
2023-02-22T07:49:18.492Z,6.32
2023-02-22T07:51:45.590Z,6.38
2023-02-22T07:54:12.575Z,6.57
2023-02-22T07:56:45.855Z,8.13
2023-02-22T07:59:12.698Z,4.78
2023-02-22T08:01:39.832Z,9.35
2023-02-22T08:04:07.299Z,5.93
2023-02-22T08:06:34.620Z,6.72
2023-02-22T08:09:01.877Z,6.78
2023-02-22T08:11:28.752Z,5.40
2023-02-22T08:13:55.567Z,9.20
2023-02-22T08:16:22.403Z,7.18
2023-02-22T08:18:49.221Z,9.10
2023-02-22T08:21:17.242Z,5.95
2023-02-22T08:23:44.224Z,7.88
2023-02-22T08:26:15.687Z,6.65
2023-02-22T08:28:43.225Z,5.13
2023-02-22T08:31:10.668Z,8.27
2023-02-22T08:33:37.627Z,7.07
2023-02-22T08:36:04.834Z,5.85
2023-02-22T08:38:34.008Z,8.63
2023-02-22T08:41:00.873Z,7.18
2023-02-22T08:43:28.673Z,8.05
2023-02-22T08:45:57.604Z,6.60
2023-02-22T08:48:24.890Z,9.48
2023-02-22T08:50:51.885Z,10.50
2023-02-22T08:53:19.103Z,7.32
2023-02-22T08:55:46.062Z,10.52
2023-02-22T08:58:13.833Z,11.50
2023-02-22T09:00:41.114Z,10.15
2023-02-22T09:03:11.956Z,7.07
2023-02-22T09:05:39.134Z,7.13
2023-02-22T09:08:06.318Z,9.93
2023-02-22T09:10:34.696Z,8.95
2023-02-22T09:13:02.519Z,15.00
2023-02-22T09:15:29.924Z,7.30
2023-02-22T09:17:57.124Z,8.27
2023-02-22T09:20:24.988Z,11.40
2023-02-22T09:22:53.070Z,10.50
2023-02-22T09:25:23.106Z,11.20
2023-02-22T09:27:51.815Z,11.52
2023-02-22T09:30:32.511Z,13.10
2023-02-22T09:33:06.082Z,10.20
2023-02-22T09:35:36.240Z,10.57
2023-02-22T09:38:06.161Z,8.32
2023-02-22T09:40:36.691Z,10.88
2023-02-22T09:43:21.472Z,8.55
2023-02-22T09:46:00.518Z,8.23
2023-02-22T09:48:27.796Z,10.43
2023-02-22T09:50:59.620Z,9.20
2023-02-22T09:53:36.162Z,12.20
2023-02-22T09:56:15.698Z,12.32
2023-02-22T09:58:54.906Z,9.95
2023-02-22T10:01:39.225Z,11.45
2023-02-22T10:04:13.402Z,13.98
2023-02-22T10:06:43.876Z,9.80
2023-02-22T10:09:11.514Z,10.90
2023-02-22T10:12:02.153Z,13.50
2023-02-22T10:14:48.627Z,14.15
2023-02-22T10:17:27.827Z,12.27
2023-02-22T10:20:15.565Z,10.82
2023-02-22T10:23:12.231Z,11.48
2023-02-22T10:25:42.306Z,10.50
2023-02-22T10:28:12.518Z,14.82
2023-02-22T10:31:05.083Z,10.70
2023-02-22T10:33:44.852Z,9.93
2023-02-22T10:36:20.270Z,12.70
2023-02-22T10:38:55.253Z,9.18
2023-02-22T10:41:31.119Z,10.82
2023-02-22T10:43:58.785Z,9.05
2023-02-22T10:46:29.400Z,7.55
2023-02-22T10:49:02.654Z,12.13
2023-02-22T10:51:30.468Z,8.10
2023-02-22T10:54:15.613Z,9.07
2023-02-22T10:56:55.643Z,13.65
2023-02-22T10:59:41.027Z,8.27
2023-02-22T11:02:23.448Z,8.25
2023-02-22T11:04:53.802Z,9.63
2023-02-22T11:07:27.440Z,9.50
2023-02-22T11:10:00.884Z,11.27
2023-02-22T11:12:32.091Z,9.88
2023-02-22T11:15:26.140Z,8.82
2023-02-22T11:17:55.655Z,9.75
2023-02-22T11:20:34.536Z,8.63
2023-02-22T11:23:04.192Z,8.65
2023-02-22T11:25:39.912Z,10.65
2023-02-22T11:28:30.820Z,10.80
2023-02-22T11:31:10.448Z,8.15
2023-02-22T11:33:38.344Z,9.68
2023-02-22T11:36:09.330Z,8.20
2023-02-22T11:38:39.050Z,10.25
2023-02-22T11:41:18.688Z,10.10
2023-02-22T11:43:48.446Z,12.45
2023-02-22T11:46:22.811Z,10.20
2023-02-22T11:49:10.223Z,8.43
2023-02-22T11:52:05.029Z,10.45
2023-02-22T11:54:46.666Z,10.30
2023-02-22T11:57:31.756Z,11.32
2023-02-22T12:00:12.244Z,13.10
2023-02-22T12:03:05.928Z,10.93
2023-02-22T12:05:42.748Z,8.02
2023-02-22T12:08:27.148Z,8.88
2023-02-22T12:11:12.590Z,11.60
2023-02-22T12:14:05.800Z,12.23
2023-02-22T12:16:39.061Z,16.25
2023-02-22T12:19:38.074Z,11.10
2023-02-22T12:22:15.133Z,14.20
2023-02-22T12:25:03.927Z,14.27
2023-02-22T12:28:09.934Z,9.57
2023-02-22T12:30:44.327Z,10.88
2023-02-22T12:33:19.132Z,11.05
2023-02-22T12:35:58.316Z,9.00
2023-02-22T12:38:44.319Z,10.95
2023-02-22T12:41:31.349Z,8.93
2023-02-22T12:44:02.305Z,12.77
2023-02-22T12:46:35.455Z,9.95
2023-02-22T12:49:27.257Z,11.43
2023-02-22T12:52:21.268Z,9.50
2023-02-22T12:54:56.262Z,12.18
2023-02-22T12:58:17.188Z,11.82
2023-02-22T13:01:00.272Z,10.55
2023-02-22T13:03:44.021Z,10.30
2023-02-22T13:06:33.296Z,10.20
2023-02-22T13:09:05.750Z,9.55
2023-02-22T13:11:54.689Z,9.57
2023-02-22T13:14:49.493Z,8.55
2023-02-22T13:17:44.881Z,12.18
2023-02-22T13:20:24.578Z,9.18
2023-02-22T13:23:12.279Z,10.48
2023-02-22T13:25:58.139Z,6.75
2023-02-22T13:28:46.562Z,7.75
2023-02-22T13:31:19.902Z,6.90
2023-02-22T13:34:03.374Z,7.35
2023-02-22T13:36:38.652Z,7.03
2023-02-22T13:39:14.808Z,4.90
2023-02-22T13:42:08.521Z,6.50
2023-02-22T13:44:47.362Z,6.95
2023-02-22T13:47:33.988Z,9.05
2023-02-22T13:50:37.753Z,11.27
2023-02-22T13:53:11.166Z,7.40
2023-02-22T13:55:41.036Z,8.25
2023-02-22T13:58:13.070Z,7.13
2023-02-22T14:00:45.744Z,7.43
2023-02-22T14:03:15.585Z,6.50
2023-02-22T14:05:42.594Z,5.85
2023-02-22T14:08:36.734Z,6.95
2023-02-22T14:11:32.599Z,8.13
2023-02-22T14:14:01.045Z,9.95
2023-02-22T14:16:29.806Z,8.55
2023-02-22T14:19:23.955Z,12.38
2023-02-22T14:22:03.475Z,10.93
2023-02-22T14:24:43.942Z,12.93
2023-02-22T14:27:11.967Z,12.82
2023-02-22T14:29:53.888Z,17.02
2023-02-22T14:32:30.749Z,16.58
2023-02-22T14:35:04.327Z,15.45
2023-02-22T14:37:39.271Z,16.30
2023-02-22T14:40:30.671Z,14.88
2023-02-22T14:43:09.594Z,15.60
2023-02-22T14:45:45.276Z,15.63
2023-02-22T14:48:25.073Z,16.75
2023-02-22T14:51:03.719Z,17.95
2023-02-22T14:53:54.004Z,16.80
2023-02-22T14:56:41.267Z,15.70
2023-02-22T14:59:13.884Z,18.10
2023-02-22T15:01:52.693Z,17.65
2023-02-22T15:04:31.062Z,21.40
2023-02-22T15:07:00.066Z,16.48
2023-02-22T15:09:34.701Z,14.68
2023-02-22T15:12:04.819Z,18.40
2023-02-22T15:14:37.813Z,17.13
2023-02-22T15:17:12.816Z,19.20
2023-02-22T15:19:41.604Z,16.17
2023-02-22T15:22:26.344Z,14.77
2023-02-22T15:25:03.612Z,15.02
2023-02-22T15:27:36.735Z,13.63
2023-02-22T15:30:27.780Z,13.45
2023-02-22T15:33:03.994Z,17.88
2023-02-22T15:35:33.519Z,14.38
2023-02-22T15:38:04.007Z,15.20
2023-02-22T15:40:33.307Z,16.23
2023-02-22T15:43:08.814Z,15.10
2023-02-22T15:45:42.928Z,14.05
2023-02-22T15:48:15.796Z,14.60
2023-02-22T15:50:59.845Z,19.08
2023-02-22T15:53:31.284Z,12.95
2023-02-22T15:56:01.733Z,16.92
2023-02-22T15:58:30.036Z,14.68
2023-02-22T16:01:03.082Z,17.52
2023-02-22T16:03:45.046Z,17.45
2023-02-22T16:06:24.700Z,16.95
2023-02-22T16:08:55.487Z,14.63
2023-02-22T16:11:43.232Z,17.52
2023-02-22T16:14:42.582Z,17.00
2023-02-22T16:17:49.375Z,17.45
2023-02-22T16:20:22.496Z,19.58
2023-02-22T16:22:50.300Z,18.48
2023-02-22T16:25:21.650Z,22.33
2023-02-22T16:27:55.950Z,21.65
2023-02-22T16:30:34.824Z,21.85
2023-02-22T16:33:05.614Z,19.85
2023-02-22T16:35:35.547Z,19.83
2023-02-22T16:38:05.358Z,20.80
2023-02-22T16:40:38.672Z,24.50
2023-02-22T16:43:08.346Z,20.17
2023-02-22T16:45:36.120Z,21.50
2023-02-22T16:48:25.643Z,20.40
2023-02-22T16:50:55.135Z,24.42
2023-02-22T16:53:25.023Z,23.08
2023-02-22T16:55:57.942Z,20.95
2023-02-22T16:58:28.681Z,25.58
2023-02-22T17:00:57.449Z,27.58
2023-02-22T17:03:25.885Z,24.90
2023-02-22T17:05:53.811Z,26.88
2023-02-22T17:08:20.936Z,23.13
2023-02-22T17:10:51.500Z,21.55
2023-02-22T17:13:26.757Z,24.45
2023-02-22T17:15:57.551Z,25.58
2023-02-22T17:18:28.534Z,24.58
2023-02-22T17:20:55.770Z,24.40
2023-02-22T17:23:24.258Z,25.92
2023-02-22T17:25:59.654Z,22.08
2023-02-22T17:28:27.013Z,25.98
2023-02-22T17:30:55.529Z,22.77
2023-02-22T17:33:27.457Z,23.52
2023-02-22T17:35:57.947Z,27.30
2023-02-22T17:38:26.997Z,31.73
2023-02-22T17:40:54.933Z,31.15
2023-02-22T17:43:22.607Z,36.25
2023-02-22T17:45:49.874Z,36.35
2023-02-22T17:48:17.948Z,33.03
2023-02-22T17:50:46.586Z,29.42
2023-02-22T17:53:14.142Z,29.05
2023-02-22T17:55:42.631Z,29.60
2023-02-22T17:58:17.454Z,28.25
2023-02-22T18:00:50.042Z,25.90
2023-02-22T18:03:25.451Z,28.33
2023-02-22T18:05:56.328Z,31.58
2023-02-22T18:08:24.480Z,27.38
2023-02-22T18:10:56.268Z,26.80
2023-02-22T18:13:26.036Z,27.15
2023-02-22T18:15:53.785Z,33.42
2023-02-22T18:18:22.178Z,36.00
2023-02-22T18:20:51.484Z,36.38
2023-02-22T18:23:22.320Z,67.55
2023-02-22T18:26:07.737Z,73.55
2023-02-22T18:28:36.790Z,71.15
2023-02-22T18:31:15.559Z,65.97
2023-02-22T18:33:48.306Z,58.22
2023-02-22T18:36:25.346Z,46.70
2023-02-22T18:38:53.998Z,36.60
2023-02-22T18:41:25.560Z,38.05
2023-02-22T18:43:55.227Z,39.58
2023-02-22T18:46:24.403Z,31.80
2023-02-22T18:48:55.978Z,33.13
2023-02-22T18:51:23.971Z,30.08
2023-02-22T18:53:54.924Z,33.20
2023-02-22T18:56:22.647Z,40.80
2023-02-22T18:59:01.036Z,35.13
2023-02-22T19:01:29.360Z,36.33
2023-02-22T19:03:56.574Z,31.52
2023-02-22T19:06:23.876Z,29.13
2023-02-22T19:08:51.157Z,31.10
2023-02-22T19:11:21.951Z,29.77
2023-02-22T19:13:51.376Z,30.77
2023-02-22T19:16:21.724Z,34.42
2023-02-22T19:18:52.348Z,31.02
2023-02-22T19:21:20.393Z,33.78
2023-02-22T19:23:48.586Z,32.95
2023-02-22T19:26:19.282Z,43.78
2023-02-22T19:28:47.382Z,38.67
2023-02-22T19:31:20.068Z,31.40
2023-02-22T19:33:51.227Z,32.50
2023-02-22T19:36:19.528Z,34.22
2023-02-22T19:38:46.618Z,33.95
2023-02-22T19:41:19.540Z,32.55
2023-02-22T19:43:50.952Z,32.75
2023-02-22T19:46:18.972Z,34.88
2023-02-22T19:48:45.931Z,31.95
2023-02-22T19:51:14.560Z,41.60
2023-02-22T19:53:43.021Z,29.23
2023-02-22T19:56:17.941Z,40.35
2023-02-22T19:58:46.497Z,37.50
2023-02-22T20:01:36.830Z,36.00
2023-02-22T20:04:06.912Z,35.13
2023-02-22T20:06:45.370Z,26.45
2023-02-22T20:09:18.138Z,27.45
2023-02-22T20:11:46.357Z,29.10
2023-02-22T20:14:19.042Z,27.60
2023-02-22T20:16:46.410Z,29.55
2023-02-22T20:19:13.724Z,22.85
2023-02-22T20:21:40.761Z,25.73
2023-02-22T20:24:12.002Z,24.33
2023-02-22T20:26:40.134Z,25.38
2023-02-22T20:29:09.196Z,26.38
2023-02-22T20:31:37.955Z,26.85
2023-02-22T20:34:09.370Z,27.42
2023-02-22T20:36:41.432Z,27.50
2023-02-22T20:39:13.686Z,26.67
2023-02-22T20:41:43.187Z,28.40
2023-02-22T20:44:13.519Z,30.67
2023-02-22T20:46:40.722Z,26.92
2023-02-22T20:49:11.141Z,29.15
2023-02-22T20:51:42.056Z,26.75
2023-02-22T20:54:11.682Z,25.23
2023-02-22T20:56:41.936Z,26.02
2023-02-22T20:59:12.651Z,25.10
2023-02-22T21:01:40.012Z,24.65
2023-02-22T21:04:08.671Z,23.73
2023-02-22T21:06:37.283Z,28.30
2023-02-22T21:09:09.420Z,27.70
2023-02-22T21:11:36.613Z,26.58
2023-02-22T21:14:04.077Z,25.10
2023-02-22T21:16:34.262Z,23.55
2023-02-22T21:19:04.213Z,29.85
2023-02-22T21:21:32.006Z,24.48
2023-02-22T21:24:02.696Z,35.53
2023-02-22T21:26:34.659Z,34.78
2023-02-22T21:29:04.872Z,34.35
2023-02-22T21:31:33.786Z,31.35
2023-02-22T21:34:01.910Z,27.73
2023-02-22T21:36:29.885Z,25.13
2023-02-22T21:38:59.970Z,26.70
2023-02-22T21:41:31.323Z,26.63
2023-02-22T21:43:59.318Z,25.38
2023-02-22T21:46:29.042Z,26.27
2023-02-22T21:48:58.602Z,26.45
2023-02-22T21:51:31.602Z,28.17
2023-02-22T21:54:04.048Z,28.40
2023-02-22T21:56:34.831Z,28.02
2023-02-22T21:59:03.721Z,27.77
2023-02-22T22:01:43.193Z,26.20
2023-02-22T22:04:10.008Z,30.48
2023-02-22T22:06:36.978Z,28.00
2023-02-22T22:09:07.686Z,32.88
2023-02-22T22:11:35.672Z,30.88
2023-02-22T22:14:03.650Z,26.40
2023-02-22T22:16:31.003Z,28.35
2023-02-22T22:18:57.946Z,27.38
2023-02-22T22:21:25.582Z,25.02
2023-02-22T22:23:57.402Z,26.58
2023-02-22T22:26:25.706Z,27.90
2023-02-22T22:28:56.000Z,31.13
2023-02-22T22:31:25.865Z,27.67
2023-02-22T22:33:53.313Z,29.15
2023-02-22T22:36:21.489Z,30.00
2023-02-22T22:38:49.235Z,27.38
2023-02-22T22:41:19.649Z,26.15
2023-02-22T22:43:46.781Z,28.50
2023-02-22T22:46:16.636Z,28.98
2023-02-22T22:48:46.872Z,29.17
2023-02-22T22:51:22.122Z,30.38
2023-02-22T22:53:50.208Z,30.23
2023-02-22T22:56:21.023Z,24.75
2023-02-22T22:58:50.452Z,26.20
2023-02-22T23:01:20.173Z,28.23
2023-02-22T23:03:54.900Z,31.95
2023-02-22T23:06:37.704Z,30.40
2023-02-22T23:09:12.634Z,29.92
2023-02-22T23:12:09.151Z,29.45
2023-02-22T23:14:45.930Z,32.42
2023-02-22T23:17:31.462Z,29.98
2023-02-22T23:19:58.559Z,30.48
2023-02-22T23:22:25.930Z,28.80
2023-02-22T23:24:54.487Z,33.28
2023-02-22T23:27:23.312Z,32.92
2023-02-22T23:29:50.154Z,31.02
2023-02-22T23:32:17.376Z,30.10
2023-02-22T23:34:44.320Z,31.55
2023-02-22T23:37:13.650Z,30.02
2023-02-22T23:39:40.467Z,29.35
2023-02-22T23:42:10.421Z,31.40
2023-02-22T23:44:37.342Z,30.60
2023-02-22T23:47:04.711Z,28.27
2023-02-22T23:49:38.085Z,29.80
2023-02-22T23:52:06.534Z,27.38
2023-02-22T23:54:36.496Z,28.92
2023-02-22T23:57:05.339Z,30.33
2023-02-22T23:59:33.513Z,28.80
